Aviation Digital Data Service (ADDS)

Output produced by METARs form (1131 UTC 28 September 2021)
found at http://www.aviationweather.gov/metar/data/
 
KDLH 281128Z 2812/2912 12006KT 3SM BR OVC002 
     TEMPO 2812/2813 1/2SM FG 
     FM281300 VRB04KT P6SM FEW014 
     FM281500 18007G15KT P6SM FEW070 
     FM290000 17005KT P6SM SKC 
     FM290900 13005KT 2SM BR SCT250